sensor_id;sensor_type;location;lat;lon;timestamp;temperature;humidity
5457;DHT22;2751;49.802;9.944;2023-07-20T00:01:32;18.90;99.90
5457;DHT22;2751;49.802;9.944;2023-07-20T00:03:58;18.80;99.90
5457;DHT22;2751;49.802;9.944;2023-07-20T00:06:26;18.70;99.90
5457;DHT22;2751;49.802;9.944;2023-07-20T00:08:53;18.60;99.90
5457;DHT22;2751;49.802;9.944;2023-07-20T00:11:25;18.60;99.90
5457;DHT22;2751;49.802;9.944;2023-07-20T00:13:52;18.60;99.90
5457;DHT22;2751;49.802;9.944;2023-07-20T00:16:19;18.60;99.90
5457;DHT22;2751;49.802;9.944;2023-07-20T00:18:46;18.60;99.90
5457;DHT22;2751;49.802;9.944;2023-07-20T00:21:13;18.70;99.90
5457;DHT22;2751;49.802;9.944;2023-07-20T00:23:40;18.70;99.90
5457;DHT22;2751;49.802;9.944;2023-07-20T00:26:07;18.70;99.90
5457;DHT22;2751;49.802;9.944;2023-07-20T00:28:35;18.80;99.90
5457;DHT22;2751;49.802;9.944;2023-07-20T00:31:02;18.80;99.90
5457;DHT22;2751;49.802;9.944;2023-07-20T00:33:29;18.80;99.90
5457;DHT22;2751;49.802;9.944;2023-07-20T00:35:56;18.80;99.90
5457;DHT22;2751;49.802;9.944;2023-07-20T00:38:23;18.80;99.90
5457;DHT22;2751;49.802;9.944;2023-07-20T00:40:50;18.90;99.90
5457;DHT22;2751;49.802;9.944;2023-07-20T00:43:17;18.80;99.90
5457;DHT22;2751;49.802;9.944;2023-07-20T00:45:46;18.80;99.90
5457;DHT22;2751;49.802;9.944;2023-07-20T00:48:14;18.70;99.90
5457;DHT22;2751;49.802;9.944;2023-07-20T00:50:41;18.60;99.90
5457;DHT22;2751;49.802;9.944;2023-07-20T00:53:08;18.60;99.90
5457;DHT22;2751;49.802;9.944;2023-07-20T00:55:35;18.50;99.90
5457;DHT22;2751;49.802;9.944;2023-07-20T00:58:02;18.50;99.90
5457;DHT22;2751;49.802;9.944;2023-07-20T01:00:30;18.40;99.90
5457;DHT22;2751;49.802;9.944;2023-07-20T01:02:58;18.40;99.90
5457;DHT22;2751;49.802;9.944;2023-07-20T01:05:31;18.40;99.90
5457;DHT22;2751;49.802;9.944;2023-07-20T01:08:03;18.40;99.90
5457;DHT22;2751;49.802;9.944;2023-07-20T01:10:36;18.40;99.90
5457;DHT22;2751;49.802;9.944;2023-07-20T01:13:07;18.40;99.90
5457;DHT22;2751;49.802;9.944;2023-07-20T01:15:34;18.40;99.90
5457;DHT22;2751;49.802;9.944;2023-07-20T01:18:03;18.50;99.90
5457;DHT22;2751;49.802;9.944;2023-07-20T01:20:32;18.50;99.90
5457;DHT22;2751;49.802;9.944;2023-07-20T01:26:11;18.50;99.90
5457;DHT22;2751;49.802;9.944;2023-07-20T01:29:10;18.40;99.90
5457;DHT22;2751;49.802;9.944;2023-07-20T01:31:41;18.40;99.90
5457;DHT22;2751;49.802;9.944;2023-07-20T01:34:11;18.40;99.90
5457;DHT22;2751;49.802;9.944;2023-07-20T01:36:39;18.30;99.90
5457;DHT22;2751;49.802;9.944;2023-07-20T01:39:08;18.30;99.90
5457;DHT22;2751;49.802;9.944;2023-07-20T01:41:35;18.30;99.90
5457;DHT22;2751;49.802;9.944;2023-07-20T01:44:03;18.20;99.90
5457;DHT22;2751;49.802;9.944;2023-07-20T01:46:30;18.20;99.90
5457;DHT22;2751;49.802;9.944;2023-07-20T01:48:59;18.20;99.90
5457;DHT22;2751;49.802;9.944;2023-07-20T01:51:26;18.20;99.90
5457;DHT22;2751;49.802;9.944;2023-07-20T01:53:53;18.10;99.90
5457;DHT22;2751;49.802;9.944;2023-07-20T01:56:20;18.10;99.90
5457;DHT22;2751;49.802;9.944;2023-07-20T01:58:47;18.10;99.90
5457;DHT22;2751;49.802;9.944;2023-07-20T02:01:14;18.10;99.90
5457;DHT22;2751;49.802;9.944;2023-07-20T02:03:41;18.10;99.90
5457;DHT22;2751;49.802;9.944;2023-07-20T02:06:09;18.00;99.90
5457;DHT22;2751;49.802;9.944;2023-07-20T02:08:36;18.00;99.90
5457;DHT22;2751;49.802;9.944;2023-07-20T02:11:02;18.00;99.90
5457;DHT22;2751;49.802;9.944;2023-07-20T02:13:30;18.10;99.90
5457;DHT22;2751;49.802;9.944;2023-07-20T02:15:57;18.10;99.90
5457;DHT22;2751;49.802;9.944;2023-07-20T02:18:24;18.10;99.90
5457;DHT22;2751;49.802;9.944;2023-07-20T02:20:53;18.00;99.90
5457;DHT22;2751;49.802;9.944;2023-07-20T02:23:21;18.00;99.90
5457;DHT22;2751;49.802;9.944;2023-07-20T02:25:48;18.00;99.90
5457;DHT22;2751;49.802;9.944;2023-07-20T02:28:15;18.00;99.90
5457;DHT22;2751;49.802;9.944;2023-07-20T02:30:42;18.00;99.90
5457;DHT22;2751;49.802;9.944;2023-07-20T02:33:09;17.90;99.90
5457;DHT22;2751;49.802;9.944;2023-07-20T02:35:36;17.90;99.90
5457;DHT22;2751;49.802;9.944;2023-07-20T02:38:02;17.80;99.90
5457;DHT22;2751;49.802;9.944;2023-07-20T02:40:31;17.70;99.90
5457;DHT22;2751;49.802;9.944;2023-07-20T02:42:58;17.70;99.90
5457;DHT22;2751;49.802;9.944;2023-07-20T02:45:25;17.60;99.90
5457;DHT22;2751;49.802;9.944;2023-07-20T02:47:52;17.60;99.90
5457;DHT22;2751;49.802;9.944;2023-07-20T02:50:19;17.50;99.90
5457;DHT22;2751;49.802;9.944;2023-07-20T02:52:46;17.50;99.90
5457;DHT22;2751;49.802;9.944;2023-07-20T02:55:13;17.50;99.90
5457;DHT22;2751;49.802;9.944;2023-07-20T02:57:41;17.40;99.90
5457;DHT22;2751;49.802;9.944;2023-07-20T03:00:09;17.30;99.90
5457;DHT22;2751;49.802;9.944;2023-07-20T03:02:37;17.20;99.90
5457;DHT22;2751;49.802;9.944;2023-07-20T03:05:04;17.20;99.90
5457;DHT22;2751;49.802;9.944;2023-07-20T03:07:32;17.10;99.90
5457;DHT22;2751;49.802;9.944;2023-07-20T03:09:59;17.10;99.90
5457;DHT22;2751;49.802;9.944;2023-07-20T03:12:26;17.00;99.90
5457;DHT22;2751;49.802;9.944;2023-07-20T03:14:54;17.00;99.90
5457;DHT22;2751;49.802;9.944;2023-07-20T03:17:22;16.90;99.90
5457;DHT22;2751;49.802;9.944;2023-07-20T03:19:49;16.90;99.90
5457;DHT22;2751;49.802;9.944;2023-07-20T03:22:16;16.80;99.90
5457;DHT22;2751;49.802;9.944;2023-07-20T03:24:43;16.80;99.90
5457;DHT22;2751;49.802;9.944;2023-07-20T03:27:10;16.80;99.90
5457;DHT22;2751;49.802;9.944;2023-07-20T03:29:37;16.80;99.90
5457;DHT22;2751;49.802;9.944;2023-07-20T03:32:05;16.80;99.90
5457;DHT22;2751;49.802;9.944;2023-07-20T03:34:32;16.80;99.90
5457;DHT22;2751;49.802;9.944;2023-07-20T03:36:59;16.80;99.90
5457;DHT22;2751;49.802;9.944;2023-07-20T03:39:26;16.80;99.90
5457;DHT22;2751;49.802;9.944;2023-07-20T03:41:53;16.80;99.90
5457;DHT22;2751;49.802;9.944;2023-07-20T03:44:20;16.80;99.90
5457;DHT22;2751;49.802;9.944;2023-07-20T03:46:47;16.80;99.90
5457;DHT22;2751;49.802;9.944;2023-07-20T03:49:15;16.80;99.90
5457;DHT22;2751;49.802;9.944;2023-07-20T03:51:42;16.80;99.90
5457;DHT22;2751;49.802;9.944;2023-07-20T03:54:09;16.80;99.90
5457;DHT22;2751;49.802;9.944;2023-07-20T03:56:36;16.80;99.90
5457;DHT22;2751;49.802;9.944;2023-07-20T03:59:02;16.80;99.90
5457;DHT22;2751;49.802;9.944;2023-07-20T04:01:29;16.80;99.90
5457;DHT22;2751;49.802;9.944;2023-07-20T04:04:06;16.80;99.90
5457;DHT22;2751;49.802;9.944;2023-07-20T04:06:34;16.70;99.90
5457;DHT22;2751;49.802;9.944;2023-07-20T04:09:02;16.70;99.90
5457;DHT22;2751;49.802;9.944;2023-07-20T04:11:30;16.70;99.90
5457;DHT22;2751;49.802;9.944;2023-07-20T04:13:57;16.70;99.90
5457;DHT22;2751;49.802;9.944;2023-07-20T04:16:24;16.70;99.90
5457;DHT22;2751;49.802;9.944;2023-07-20T04:18:51;16.70;99.90
5457;DHT22;2751;49.802;9.944;2023-07-20T04:21:18;16.70;99.90
5457;DHT22;2751;49.802;9.944;2023-07-20T04:23:46;16.70;99.90
5457;DHT22;2751;49.802;9.944;2023-07-20T04:26:13;16.70;99.90
5457;DHT22;2751;49.802;9.944;2023-07-20T04:28:41;16.70;99.90
5457;DHT22;2751;49.802;9.944;2023-07-20T04:31:11;16.70;99.90
5457;DHT22;2751;49.802;9.944;2023-07-20T04:33:39;16.70;99.90
5457;DHT22;2751;49.802;9.944;2023-07-20T04:36:06;16.70;99.90
5457;DHT22;2751;49.802;9.944;2023-07-20T04:38:34;16.80;99.90
5457;DHT22;2751;49.802;9.944;2023-07-20T04:41:03;16.70;99.90
5457;DHT22;2751;49.802;9.944;2023-07-20T04:43:30;16.70;99.90
5457;DHT22;2751;49.802;9.944;2023-07-20T04:45:56;16.70;99.90
5457;DHT22;2751;49.802;9.944;2023-07-20T04:48:23;16.80;99.90
5457;DHT22;2751;49.802;9.944;2023-07-20T04:50:50;16.90;99.90
5457;DHT22;2751;49.802;9.944;2023-07-20T04:53:17;16.90;99.90
5457;DHT22;2751;49.802;9.944;2023-07-20T04:55:48;16.80;99.90
5457;DHT22;2751;49.802;9.944;2023-07-20T04:58:17;16.90;99.90
5457;DHT22;2751;49.802;9.944;2023-07-20T05:00:44;16.90;99.90
5457;DHT22;2751;49.802;9.944;2023-07-20T05:03:12;16.90;99.90
5457;DHT22;2751;49.802;9.944;2023-07-20T05:05:39;16.90;99.90
5457;DHT22;2751;49.802;9.944;2023-07-20T05:08:06;16.70;99.90
5457;DHT22;2751;49.802;9.944;2023-07-20T05:10:36;17.20;99.90
5457;DHT22;2751;49.802;9.944;2023-07-20T05:13:03;17.30;99.90
5457;DHT22;2751;49.802;9.944;2023-07-20T05:15:33;17.40;99.90
5457;DHT22;2751;49.802;9.944;2023-07-20T05:18:00;17.40;99.90
5457;DHT22;2751;49.802;9.944;2023-07-20T05:20:34;17.50;99.90
5457;DHT22;2751;49.802;9.944;2023-07-20T05:23:02;17.50;99.90
5457;DHT22;2751;49.802;9.944;2023-07-20T05:25:29;17.60;99.90
5457;DHT22;2751;49.802;9.944;2023-07-20T05:27:56;17.60;99.90
5457;DHT22;2751;49.802;9.944;2023-07-20T05:30:23;17.80;99.90
5457;DHT22;2751;49.802;9.944;2023-07-20T05:32:52;17.80;99.90
5457;DHT22;2751;49.802;9.944;2023-07-20T05:35:20;17.90;99.90
5457;DHT22;2751;49.802;9.944;2023-07-20T05:37:48;18.00;99.90
5457;DHT22;2751;49.802;9.944;2023-07-20T05:40:15;17.90;99.90
5457;DHT22;2751;49.802;9.944;2023-07-20T05:42:44;18.10;99.90
5457;DHT22;2751;49.802;9.944;2023-07-20T05:45:12;18.20;99.90
5457;DHT22;2751;49.802;9.944;2023-07-20T05:47:39;18.30;99.90
5457;DHT22;2751;49.802;9.944;2023-07-20T05:50:08;18.30;99.90
5457;DHT22;2751;49.802;9.944;2023-07-20T05:52:35;18.50;99.90
5457;DHT22;2751;49.802;9.944;2023-07-20T05:55:05;18.60;99.90
5457;DHT22;2751;49.802;9.944;2023-07-20T05:57:32;18.60;99.90
5457;DHT22;2751;49.802;9.944;2023-07-20T05:59:59;18.70;99.90
5457;DHT22;2751;49.802;9.944;2023-07-20T06:02:26;18.70;99.90
5457;DHT22;2751;49.802;9.944;2023-07-20T06:04:54;18.80;99.90
5457;DHT22;2751;49.802;9.944;2023-07-20T06:07:22;18.90;99.90
5457;DHT22;2751;49.802;9.944;2023-07-20T06:09:49;18.90;99.90
5457;DHT22;2751;49.802;9.944;2023-07-20T06:12:16;19.00;99.90
5457;DHT22;2751;49.802;9.944;2023-07-20T06:14:43;18.70;99.90
5457;DHT22;2751;49.802;9.944;2023-07-20T06:17:10;19.10;99.90
5457;DHT22;2751;49.802;9.944;2023-07-20T06:19:37;19.20;99.90
5457;DHT22;2751;49.802;9.944;2023-07-20T06:22:05;19.20;99.90
5457;DHT22;2751;49.802;9.944;2023-07-20T06:24:33;19.30;99.90
5457;DHT22;2751;49.802;9.944;2023-07-20T06:27:00;19.40;99.90
5457;DHT22;2751;49.802;9.944;2023-07-20T06:29:27;19.40;99.90
5457;DHT22;2751;49.802;9.944;2023-07-20T06:31:53;19.50;99.90
5457;DHT22;2751;49.802;9.944;2023-07-20T06:34:20;19.60;99.90
5457;DHT22;2751;49.802;9.944;2023-07-20T06:36:47;19.80;99.90
5457;DHT22;2751;49.802;9.944;2023-07-20T06:39:14;19.90;99.90
5457;DHT22;2751;49.802;9.944;2023-07-20T06:41:42;20.00;99.90
5457;DHT22;2751;49.802;9.944;2023-07-20T06:44:09;20.10;99.90
5457;DHT22;2751;49.802;9.944;2023-07-20T06:46:38;20.10;99.90
5457;DHT22;2751;49.802;9.944;2023-07-20T06:49:06;20.30;99.90
5457;DHT22;2751;49.802;9.944;2023-07-20T06:51:34;20.30;99.90
5457;DHT22;2751;49.802;9.944;2023-07-20T06:54:01;20.40;99.90
5457;DHT22;2751;49.802;9.944;2023-07-20T06:56:30;20.50;99.90
5457;DHT22;2751;49.802;9.944;2023-07-20T06:58:58;20.40;99.90
5457;DHT22;2751;49.802;9.944;2023-07-20T07:01:28;20.50;99.90
5457;DHT22;2751;49.802;9.944;2023-07-20T07:03:55;20.60;99.90
5457;DHT22;2751;49.802;9.944;2023-07-20T07:06:22;20.70;99.90
5457;DHT22;2751;49.802;9.944;2023-07-20T07:08:49;20.70;99.90
5457;DHT22;2751;49.802;9.944;2023-07-20T07:11:16;20.70;99.90
5457;DHT22;2751;49.802;9.944;2023-07-20T07:13:44;20.60;99.90
5457;DHT22;2751;49.802;9.944;2023-07-20T07:16:13;20.70;99.90
5457;DHT22;2751;49.802;9.944;2023-07-20T07:18:44;20.80;99.90
5457;DHT22;2751;49.802;9.944;2023-07-20T07:21:11;20.90;99.90
5457;DHT22;2751;49.802;9.944;2023-07-20T07:23:38;21.00;99.90
5457;DHT22;2751;49.802;9.944;2023-07-20T07:26:05;21.00;99.90
5457;DHT22;2751;49.802;9.944;2023-07-20T07:28:32;21.10;99.90
5457;DHT22;2751;49.802;9.944;2023-07-20T07:30:59;21.20;99.90
5457;DHT22;2751;49.802;9.944;2023-07-20T07:33:27;21.30;99.90
5457;DHT22;2751;49.802;9.944;2023-07-20T07:35:54;21.30;99.90
5457;DHT22;2751;49.802;9.944;2023-07-20T07:38:21;21.30;99.90
5457;DHT22;2751;49.802;9.944;2023-07-20T07:40:48;21.40;99.90
5457;DHT22;2751;49.802;9.944;2023-07-20T07:43:16;21.50;99.90
5457;DHT22;2751;49.802;9.944;2023-07-20T07:45:43;21.60;99.90
5457;DHT22;2751;49.802;9.944;2023-07-20T07:48:10;21.70;99.90
5457;DHT22;2751;49.802;9.944;2023-07-20T07:50:39;21.80;99.90
5457;DHT22;2751;49.802;9.944;2023-07-20T07:53:07;21.80;99.90
5457;DHT22;2751;49.802;9.944;2023-07-20T07:55:35;21.90;99.90
5457;DHT22;2751;49.802;9.944;2023-07-20T07:58:02;21.80;99.90
5457;DHT22;2751;49.802;9.944;2023-07-20T08:00:29;21.70;99.90
5457;DHT22;2751;49.802;9.944;2023-07-20T08:02:56;21.60;99.90
5457;DHT22;2751;49.802;9.944;2023-07-20T08:05:23;21.60;99.90
5457;DHT22;2751;49.802;9.944;2023-07-20T08:07:51;21.70;99.90
5457;DHT22;2751;49.802;9.944;2023-07-20T08:10:18;21.70;99.90
5457;DHT22;2751;49.802;9.944;2023-07-20T08:12:45;21.80;99.90
5457;DHT22;2751;49.802;9.944;2023-07-20T08:15:12;21.90;99.90
5457;DHT22;2751;49.802;9.944;2023-07-20T08:17:40;22.00;99.90
5457;DHT22;2751;49.802;9.944;2023-07-20T08:20:08;22.40;99.90
5457;DHT22;2751;49.802;9.944;2023-07-20T08:22:37;22.20;99.90
5457;DHT22;2751;49.802;9.944;2023-07-20T08:25:06;22.20;99.90
5457;DHT22;2751;49.802;9.944;2023-07-20T08:27:35;22.30;99.90
5457;DHT22;2751;49.802;9.944;2023-07-20T08:30:03;22.50;99.90
5457;DHT22;2751;49.802;9.944;2023-07-20T08:32:32;22.40;99.90
5457;DHT22;2751;49.802;9.944;2023-07-20T08:34:59;22.40;99.90
5457;DHT22;2751;49.802;9.944;2023-07-20T08:37:26;22.40;99.90
5457;DHT22;2751;49.802;9.944;2023-07-20T08:39:53;22.30;99.90
5457;DHT22;2751;49.802;9.944;2023-07-20T08:42:23;22.50;99.90
5457;DHT22;2751;49.802;9.944;2023-07-20T08:44:50;23.40;99.90
5457;DHT22;2751;49.802;9.944;2023-07-20T08:47:20;24.20;99.90
5457;DHT22;2751;49.802;9.944;2023-07-20T08:49:49;24.20;99.90
5457;DHT22;2751;49.802;9.944;2023-07-20T08:52:16;23.50;99.90
5457;DHT22;2751;49.802;9.944;2023-07-20T08:54:43;23.30;99.90
5457;DHT22;2751;49.802;9.944;2023-07-20T08:57:11;24.30;99.90
5457;DHT22;2751;49.802;9.944;2023-07-20T08:59:41;25.40;99.90
5457;DHT22;2751;49.802;9.944;2023-07-20T09:02:12;25.80;99.50
5457;DHT22;2751;49.802;9.944;2023-07-20T09:04:42;24.90;99.90
5457;DHT22;2751;49.802;9.944;2023-07-20T09:07:11;24.10;99.60
5457;DHT22;2751;49.802;9.944;2023-07-20T09:09:40;25.00;99.30
5457;DHT22;2751;49.802;9.944;2023-07-20T09:12:13;26.50;96.80
5457;DHT22;2751;49.802;9.944;2023-07-20T09:14:44;27.60;1.00
5457;DHT22;2751;49.802;9.944;2023-07-20T09:17:13;28.20;1.00
5457;DHT22;2751;49.802;9.944;2023-07-20T09:19:46;27.40;99.90
5457;DHT22;2751;49.802;9.944;2023-07-20T09:22:13;27.50;99.90
5457;DHT22;2751;49.802;9.944;2023-07-20T09:24:40;28.40;1.00
5457;DHT22;2751;49.802;9.944;2023-07-20T09:27:07;29.10;1.00
5457;DHT22;2751;49.802;9.944;2023-07-20T09:29:35;29.60;1.00
5457;DHT22;2751;49.802;9.944;2023-07-20T09:32:18;29.90;1.00
5457;DHT22;2751;49.802;9.944;2023-07-20T09:34:45;29.60;1.00
5457;DHT22;2751;49.802;9.944;2023-07-20T09:37:12;27.20;99.90
5457;DHT22;2751;49.802;9.944;2023-07-20T09:39:42;25.80;99.90
5457;DHT22;2751;49.802;9.944;2023-07-20T09:42:11;27.00;99.90
5457;DHT22;2751;49.802;9.944;2023-07-20T09:44:39;28.00;99.90
5457;DHT22;2751;49.802;9.944;2023-07-20T09:47:06;28.80;99.90
5457;DHT22;2751;49.802;9.944;2023-07-20T09:49:39;29.60;1.00
5457;DHT22;2751;49.802;9.944;2023-07-20T09:52:07;29.80;1.00
5457;DHT22;2751;49.802;9.944;2023-07-20T09:54:36;29.70;99.90
5457;DHT22;2751;49.802;9.944;2023-07-20T09:57:04;30.10;1.00
5457;DHT22;2751;49.802;9.944;2023-07-20T09:59:33;30.00;99.90
5457;DHT22;2751;49.802;9.944;2023-07-20T10:02:02;29.80;99.90
5457;DHT22;2751;49.802;9.944;2023-07-20T10:04:35;30.10;99.90
5457;DHT22;2751;49.802;9.944;2023-07-20T10:07:05;30.40;99.90
5457;DHT22;2751;49.802;9.944;2023-07-20T10:09:37;30.20;99.90
5457;DHT22;2751;49.802;9.944;2023-07-20T10:12:07;31.30;1.00
5457;DHT22;2751;49.802;9.944;2023-07-20T10:14:41;31.60;1.00
5457;DHT22;2751;49.802;9.944;2023-07-20T10:17:12;32.90;1.00
5457;DHT22;2751;49.802;9.944;2023-07-20T10:19:44;33.60;1.00
5457;DHT22;2751;49.802;9.944;2023-07-20T10:22:14;30.40;99.90
5457;DHT22;2751;49.802;9.944;2023-07-20T10:24:51;28.40;99.90
5457;DHT22;2751;49.802;9.944;2023-07-20T10:27:20;28.00;99.90
5457;DHT22;2751;49.802;9.944;2023-07-20T10:29:51;28.90;99.90
5457;DHT22;2751;49.802;9.944;2023-07-20T10:32:19;30.10;99.90
5457;DHT22;2751;49.802;9.944;2023-07-20T10:34:51;30.60;99.90
5457;DHT22;2751;49.802;9.944;2023-07-20T10:37:46;32.20;1.00
5457;DHT22;2751;49.802;9.944;2023-07-20T10:40:40;34.50;1.00
5457;DHT22;2751;49.802;9.944;2023-07-20T10:43:08;34.20;1.00
5457;DHT22;2751;49.802;9.944;2023-07-20T10:45:41;31.10;99.90
5457;DHT22;2751;49.802;9.944;2023-07-20T10:48:19;29.60;99.90
5457;DHT22;2751;49.802;9.944;2023-07-20T10:51:14;28.50;99.90
5457;DHT22;2751;49.802;9.944;2023-07-20T10:53:48;30.10;99.90
5457;DHT22;2751;49.802;9.944;2023-07-20T10:56:19;30.90;99.90
5457;DHT22;2751;49.802;9.944;2023-07-20T10:58:47;29.80;99.90
5457;DHT22;2751;49.802;9.944;2023-07-20T11:01:16;28.70;99.90
5457;DHT22;2751;49.802;9.944;2023-07-20T11:03:48;29.90;99.90
5457;DHT22;2751;49.802;9.944;2023-07-20T11:09:46;32.20;1.00
5457;DHT22;2751;49.802;9.944;2023-07-20T11:12:14;33.80;1.00
5457;DHT22;2751;49.802;9.944;2023-07-20T11:14:41;32.40;1.00
5457;DHT22;2751;49.802;9.944;2023-07-20T11:17:12;30.70;1.00
5457;DHT22;2751;49.802;9.944;2023-07-20T11:19:39;30.80;99.90
5457;DHT22;2751;49.802;9.944;2023-07-20T11:22:06;31.90;1.00
5457;DHT22;2751;49.802;9.944;2023-07-20T11:24:38;32.60;1.00
5457;DHT22;2751;49.802;9.944;2023-07-20T11:27:06;32.30;1.00
5457;DHT22;2751;49.802;9.944;2023-07-20T11:29:34;31.60;99.90
5457;DHT22;2751;49.802;9.944;2023-07-20T11:32:02;32.20;1.00
5457;DHT22;2751;49.802;9.944;2023-07-20T11:34:31;33.20;1.00
5457;DHT22;2751;49.802;9.944;2023-07-20T11:36:58;33.80;1.00
5457;DHT22;2751;49.802;9.944;2023-07-20T11:39:25;31.90;99.90
5457;DHT22;2751;49.802;9.944;2023-07-20T11:41:54;30.90;99.90
5457;DHT22;2751;49.802;9.944;2023-07-20T11:44:24;31.80;99.90
5457;DHT22;2751;49.802;9.944;2023-07-20T11:47:00;33.00;1.00
5457;DHT22;2751;49.802;9.944;2023-07-20T11:49:29;30.90;99.90
5457;DHT22;2751;49.802;9.944;2023-07-20T11:51:57;30.30;99.90
5457;DHT22;2751;49.802;9.944;2023-07-20T11:54:24;29.50;99.90
5457;DHT22;2751;49.802;9.944;2023-07-20T11:56:53;29.00;99.90
5457;DHT22;2751;49.802;9.944;2023-07-20T11:59:22;30.40;99.90
5457;DHT22;2751;49.802;9.944;2023-07-20T12:01:49;30.50;99.90
5457;DHT22;2751;49.802;9.944;2023-07-20T12:04:16;29.90;99.90
5457;DHT22;2751;49.802;9.944;2023-07-20T12:06:45;29.00;99.90
5457;DHT22;2751;49.802;9.944;2023-07-20T12:09:14;28.50;99.90
5457;DHT22;2751;49.802;9.944;2023-07-20T12:11:44;29.00;99.90
5457;DHT22;2751;49.802;9.944;2023-07-20T12:14:11;29.10;99.90
5457;DHT22;2751;49.802;9.944;2023-07-20T12:16:39;29.20;99.90
5457;DHT22;2751;49.802;9.944;2023-07-20T12:19:07;31.40;99.90
5457;DHT22;2751;49.802;9.944;2023-07-20T12:21:36;31.20;99.90
5457;DHT22;2751;49.802;9.944;2023-07-20T12:24:07;30.60;99.90
5457;DHT22;2751;49.802;9.944;2023-07-20T12:26:34;30.20;99.90
5457;DHT22;2751;49.802;9.944;2023-07-20T12:29:02;31.20;99.90
5457;DHT22;2751;49.802;9.944;2023-07-20T12:31:30;31.90;99.90
5457;DHT22;2751;49.802;9.944;2023-07-20T12:33:58;32.00;99.90
5457;DHT22;2751;49.802;9.944;2023-07-20T12:36:26;32.70;99.90
5457;DHT22;2751;49.802;9.944;2023-07-20T12:38:53;33.30;1.00
5457;DHT22;2751;49.802;9.944;2023-07-20T12:41:20;31.80;99.90
5457;DHT22;2751;49.802;9.944;2023-07-20T12:43:47;29.90;99.90
5457;DHT22;2751;49.802;9.944;2023-07-20T12:46:15;29.10;99.90
5457;DHT22;2751;49.802;9.944;2023-07-20T12:48:42;28.40;99.90
5457;DHT22;2751;49.802;9.944;2023-07-20T12:51:11;27.80;99.90
5457;DHT22;2751;49.802;9.944;2023-07-20T12:53:38;27.10;99.90
5457;DHT22;2751;49.802;9.944;2023-07-20T12:56:05;27.10;99.90
5457;DHT22;2751;49.802;9.944;2023-07-20T12:58:34;27.00;99.90
5457;DHT22;2751;49.802;9.944;2023-07-20T13:01:02;27.00;99.90
5457;DHT22;2751;49.802;9.944;2023-07-20T13:03:29;28.60;99.90
5457;DHT22;2751;49.802;9.944;2023-07-20T13:05:56;28.70;99.90
5457;DHT22;2751;49.802;9.944;2023-07-20T13:08:25;28.70;99.90
5457;DHT22;2751;49.802;9.944;2023-07-20T13:10:52;28.70;99.90
5457;DHT22;2751;49.802;9.944;2023-07-20T13:13:19;28.00;99.90
5457;DHT22;2751;49.802;9.944;2023-07-20T13:15:46;27.60;99.90
5457;DHT22;2751;49.802;9.944;2023-07-20T13:18:13;27.40;99.90
5457;DHT22;2751;49.802;9.944;2023-07-20T13:20:40;27.10;99.90
5457;DHT22;2751;49.802;9.944;2023-07-20T13:23:07;27.70;99.90
5457;DHT22;2751;49.802;9.944;2023-07-20T13:25:35;27.90;99.90
5457;DHT22;2751;49.802;9.944;2023-07-20T13:28:14;28.80;99.90
5457;DHT22;2751;49.802;9.944;2023-07-20T13:30:50;29.00;99.90
5457;DHT22;2751;49.802;9.944;2023-07-20T13:33:17;28.60;99.90
5457;DHT22;2751;49.802;9.944;2023-07-20T13:35:44;28.20;99.90
5457;DHT22;2751;49.802;9.944;2023-07-20T13:38:10;27.90;99.90
5457;DHT22;2751;49.802;9.944;2023-07-20T13:40:40;28.10;99.90
5457;DHT22;2751;49.802;9.944;2023-07-20T13:43:08;28.30;99.90
5457;DHT22;2751;49.802;9.944;2023-07-20T13:45:34;28.50;99.90
5457;DHT22;2751;49.802;9.944;2023-07-20T13:48:01;28.20;99.90
5457;DHT22;2751;49.802;9.944;2023-07-20T13:50:28;27.90;99.90
5457;DHT22;2751;49.802;9.944;2023-07-20T13:52:55;27.70;99.90
5457;DHT22;2751;49.802;9.944;2023-07-20T13:55:22;27.90;99.90
5457;DHT22;2751;49.802;9.944;2023-07-20T13:57:51;27.80;99.90
5457;DHT22;2751;49.802;9.944;2023-07-20T14:00:18;28.90;99.90
5457;DHT22;2751;49.802;9.944;2023-07-20T14:02:45;30.10;99.90
5457;DHT22;2751;49.802;9.944;2023-07-20T14:05:12;30.60;99.90
5457;DHT22;2751;49.802;9.944;2023-07-20T14:07:41;30.70;99.90
5457;DHT22;2751;49.802;9.944;2023-07-20T14:10:09;31.40;99.90
5457;DHT22;2751;49.802;9.944;2023-07-20T14:12:37;32.10;99.90
5457;DHT22;2751;49.802;9.944;2023-07-20T14:15:06;32.60;99.90
5457;DHT22;2751;49.802;9.944;2023-07-20T14:17:33;33.80;99.90
5457;DHT22;2751;49.802;9.944;2023-07-20T14:20:01;34.90;1.00
5457;DHT22;2751;49.802;9.944;2023-07-20T14:22:30;35.60;1.00
5457;DHT22;2751;49.802;9.944;2023-07-20T14:24:58;36.00;1.00
5457;DHT22;2751;49.802;9.944;2023-07-20T14:27:25;36.10;1.00
5457;DHT22;2751;49.802;9.944;2023-07-20T14:29:52;35.90;1.00
5457;DHT22;2751;49.802;9.944;2023-07-20T14:32:20;35.50;1.00
5457;DHT22;2751;49.802;9.944;2023-07-20T14:34:47;33.20;99.90
5457;DHT22;2751;49.802;9.944;2023-07-20T14:37:15;31.60;99.90
5457;DHT22;2751;49.802;9.944;2023-07-20T14:39:42;31.80;99.90
5457;DHT22;2751;49.802;9.944;2023-07-20T14:42:09;33.60;99.90
5457;DHT22;2751;49.802;9.944;2023-07-20T14:44:36;35.30;1.00
5457;DHT22;2751;49.802;9.944;2023-07-20T14:47:03;36.40;1.00
5457;DHT22;2751;49.802;9.944;2023-07-20T14:49:32;37.50;1.00
5457;DHT22;2751;49.802;9.944;2023-07-20T14:51:58;36.90;1.00
5457;DHT22;2751;49.802;9.944;2023-07-20T14:54:25;36.10;1.00
5457;DHT22;2751;49.802;9.944;2023-07-20T14:56:52;33.30;99.90
5457;DHT22;2751;49.802;9.944;2023-07-20T14:59:20;31.60;99.90
5457;DHT22;2751;49.802;9.944;2023-07-20T15:01:47;30.70;99.90
5457;DHT22;2751;49.802;9.944;2023-07-20T15:04:14;30.10;99.90
5457;DHT22;2751;49.802;9.944;2023-07-20T15:06:43;29.30;99.90
5457;DHT22;2751;49.802;9.944;2023-07-20T15:09:10;28.20;99.90
5457;DHT22;2751;49.802;9.944;2023-07-20T15:11:37;27.70;99.90
5457;DHT22;2751;49.802;9.944;2023-07-20T15:14:04;27.40;99.90
5457;DHT22;2751;49.802;9.944;2023-07-20T15:16:31;27.40;99.90
5457;DHT22;2751;49.802;9.944;2023-07-20T15:18:58;27.50;99.90
5457;DHT22;2751;49.802;9.944;2023-07-20T15:21:25;27.70;99.90
5457;DHT22;2751;49.802;9.944;2023-07-20T15:23:57;28.20;99.90
5457;DHT22;2751;49.802;9.944;2023-07-20T15:26:24;30.40;99.90
5457;DHT22;2751;49.802;9.944;2023-07-20T15:28:51;31.70;99.90
5457;DHT22;2751;49.802;9.944;2023-07-20T15:31:18;32.30;99.90
5457;DHT22;2751;49.802;9.944;2023-07-20T15:33:45;32.30;99.90
5457;DHT22;2751;49.802;9.944;2023-07-20T15:36:11;33.50;99.90
5457;DHT22;2751;49.802;9.944;2023-07-20T15:38:38;33.50;99.90
5457;DHT22;2751;49.802;9.944;2023-07-20T15:41:06;32.30;99.90
5457;DHT22;2751;49.802;9.944;2023-07-20T15:43:33;32.80;99.90
5457;DHT22;2751;49.802;9.944;2023-07-20T15:46:02;33.50;99.90
5457;DHT22;2751;49.802;9.944;2023-07-20T15:48:31;33.50;99.90
5457;DHT22;2751;49.802;9.944;2023-07-20T15:50:58;33.20;99.90
5457;DHT22;2751;49.802;9.944;2023-07-20T15:53:25;32.70;99.90
5457;DHT22;2751;49.802;9.944;2023-07-20T15:55:55;33.20;99.90
5457;DHT22;2751;49.802;9.944;2023-07-20T15:58:23;33.30;99.90
5457;DHT22;2751;49.802;9.944;2023-07-20T16:00:53;33.20;99.90
5457;DHT22;2751;49.802;9.944;2023-07-20T16:03:21;32.30;99.90
5457;DHT22;2751;49.802;9.944;2023-07-20T16:05:49;31.30;99.90
5457;DHT22;2751;49.802;9.944;2023-07-20T16:08:16;29.80;99.90
5457;DHT22;2751;49.802;9.944;2023-07-20T16:10:43;29.00;99.90
5457;DHT22;2751;49.802;9.944;2023-07-20T16:13:10;28.50;99.90
5457;DHT22;2751;49.802;9.944;2023-07-20T16:15:38;28.90;99.90